createdAt,value
2023-04-07T00:03:33.953Z,2.72
2023-04-07T00:08:36.745Z,2.72
2023-04-07T00:13:39.306Z,2.70
2023-04-07T00:18:47.078Z,2.73
2023-04-07T00:24:01.769Z,2.73
2023-04-07T00:29:06.607Z,2.73
2023-04-07T00:34:19.512Z,2.72
2023-04-07T00:39:22.135Z,2.73
2023-04-07T00:44:25.787Z,2.69
2023-04-07T00:49:32.083Z,2.70
2023-04-07T00:54:35.286Z,2.73
2023-04-07T00:59:38.984Z,2.70
2023-04-07T01:04:51.913Z,2.70
2023-04-07T01:10:05.740Z,2.74
2023-04-07T01:15:22.716Z,2.67
2023-04-07T01:20:33.068Z,2.63
2023-04-07T01:26:04.451Z,2.65
2023-04-07T01:31:10.800Z,2.70
2023-04-07T01:36:37.052Z,2.68
2023-04-07T01:41:43.256Z,2.64
2023-04-07T01:46:46.651Z,2.64
2023-04-07T01:51:53.027Z,2.61
2023-04-07T01:57:11.794Z,2.61
2023-04-07T02:02:43.103Z,2.62
2023-04-07T02:08:01.394Z,2.64
2023-04-07T02:13:10.650Z,2.63
2023-04-07T02:18:36.512Z,2.65
2023-04-07T02:23:49.968Z,2.62
2023-04-07T02:28:57.959Z,2.60
2023-04-07T02:34:00.751Z,2.60
2023-04-07T02:39:04.826Z,2.62
2023-04-07T02:44:10.149Z,2.59
2023-04-07T02:49:13.150Z,2.60
2023-04-07T02:54:15.839Z,2.60
2023-04-07T02:59:22.687Z,2.60
2023-04-07T03:04:33.547Z,2.58
2023-04-07T03:09:36.827Z,2.59
2023-04-07T03:14:39.457Z,2.62
2023-04-07T03:19:57.767Z,2.63
2023-04-07T03:25:01.140Z,2.68
2023-04-07T03:30:15.773Z,2.66
2023-04-07T03:35:22.232Z,2.71
2023-04-07T03:40:27.036Z,2.69
2023-04-07T03:45:34.095Z,2.70
2023-04-07T03:50:40.390Z,2.70
2023-04-07T03:55:48.731Z,2.72
2023-04-07T04:01:02.723Z,2.73
2023-04-07T04:06:07.526Z,2.72
2023-04-07T04:11:09.996Z,2.74
2023-04-07T04:16:54.374Z,2.78
2023-04-07T04:22:04.264Z,2.77
2023-04-07T04:27:12.022Z,2.76
2023-04-07T04:32:15.457Z,2.77
2023-04-07T04:37:18.951Z,2.78
2023-04-07T04:42:23.040Z,2.78
2023-04-07T04:47:26.478Z,2.83
2023-04-07T04:52:32.070Z,2.85
2023-04-07T04:57:38.459Z,2.78
2023-04-07T05:02:47.047Z,2.77
2023-04-07T05:07:51.101Z,2.78
2023-04-07T05:12:54.327Z,2.82
2023-04-07T05:18:02.939Z,2.81
2023-04-07T05:23:26.578Z,2.85
2023-04-07T05:28:37.555Z,2.88
2023-04-07T05:33:44.520Z,2.91
2023-04-07T05:38:48.449Z,2.91
2023-04-07T05:43:53.958Z,2.94
2023-04-07T05:49:18.791Z,2.97
2023-04-07T05:54:41.051Z,2.98
2023-04-07T05:59:50.730Z,2.98
2023-04-07T06:05:07.908Z,3.01
2023-04-07T06:10:12.496Z,3.02
2023-04-07T06:15:18.821Z,3.02
2023-04-07T06:20:28.910Z,3.08
2023-04-07T06:25:31.560Z,3.16
2023-04-07T06:30:42.002Z,3.24
2023-04-07T06:36:05.575Z,3.35
2023-04-07T06:41:28.625Z,3.36
2023-04-07T06:46:31.735Z,3.32
2023-04-07T06:52:02.817Z,3.38
2023-04-07T06:57:44.263Z,3.37
2023-04-07T07:03:12.886Z,3.43
2023-04-07T07:08:32.937Z,3.48
2023-04-07T07:13:54.717Z,3.58
2023-04-07T07:19:14.141Z,3.63
2023-04-07T07:24:17.448Z,3.66
2023-04-07T07:30:09.754Z,3.81
2023-04-07T07:35:16.343Z,3.91
2023-04-07T07:40:40.986Z,3.92
2023-04-07T07:46:15.732Z,4.00
2023-04-07T07:51:55.455Z,4.14
2023-04-07T07:57:06.159Z,4.24
2023-04-07T08:02:12.912Z,4.28
2023-04-07T08:07:21.537Z,4.26
2023-04-07T08:12:50.255Z,4.43
2023-04-07T08:17:54.713Z,4.49
2023-04-07T08:23:10.274Z,4.48
2023-04-07T08:28:13.927Z,4.38
2023-04-07T08:33:26.681Z,4.32
2023-04-07T08:38:29.159Z,4.38
2023-04-07T08:43:39.492Z,4.37
2023-04-07T08:48:53.017Z,4.35
2023-04-07T08:54:26.056Z,4.32
2023-04-07T08:59:29.925Z,4.41
2023-04-07T09:04:46.007Z,4.49
2023-04-07T09:11:06.884Z,4.60
2023-04-07T09:16:09.712Z,4.62
2023-04-07T09:21:16.772Z,4.66
2023-04-07T09:26:41.631Z,4.70
2023-04-07T09:31:50.565Z,4.73
2023-04-07T09:37:05.013Z,4.80
2023-04-07T09:42:11.687Z,4.88
2023-04-07T09:47:14.504Z,4.96
2023-04-07T09:53:19.779Z,5.02
2023-04-07T09:58:41.121Z,5.18
2023-04-07T10:03:48.375Z,5.08
2023-04-07T10:09:14.650Z,5.15
2023-04-07T10:14:19.552Z,5.12
2023-04-07T10:19:27.059Z,5.10
2023-04-07T10:24:59.023Z,5.13
2023-04-07T10:30:04.273Z,5.22
2023-04-07T10:35:24.025Z,5.25
2023-04-07T10:41:36.328Z,5.23
2023-04-07T10:47:31.725Z,5.18
2023-04-07T10:53:18.815Z,5.11
2023-04-07T10:58:29.074Z,5.00
2023-04-07T11:04:10.084Z,4.95
2023-04-07T11:09:45.694Z,4.93
2023-04-07T11:15:11.488Z,4.91
2023-04-07T11:20:57.277Z,4.96
2023-04-07T11:26:12.782Z,4.98
2023-04-07T11:31:31.789Z,5.07
2023-04-07T11:36:39.605Z,5.08
2023-04-07T11:41:50.606Z,5.07
2023-04-07T11:47:03.873Z,4.98
2023-04-07T11:52:12.952Z,4.92
2023-04-07T11:57:24.341Z,4.86
2023-04-07T12:02:34.182Z,4.83
2023-04-07T12:07:42.090Z,4.89
2023-04-07T12:12:46.351Z,4.90
2023-04-07T12:17:53.179Z,4.86
2023-04-07T12:22:56.048Z,4.81
2023-04-07T12:28:01.601Z,4.78
2023-04-07T12:33:04.111Z,4.78
2023-04-07T12:38:09.157Z,4.81
2023-04-07T12:43:11.644Z,4.87
2023-04-07T12:48:18.712Z,4.93
2023-04-07T12:53:27.562Z,4.93
2023-04-07T12:58:30.699Z,4.97
2023-04-07T13:03:35.878Z,4.98
2023-04-07T13:08:39.443Z,4.98
2023-04-07T13:13:42.278Z,4.99
2023-04-07T13:18:52.722Z,4.95
2023-04-07T13:24:00.471Z,4.89
2023-04-07T13:29:18.647Z,4.91
2023-04-07T13:34:48.336Z,5.00
2023-04-07T13:40:04.247Z,4.96
2023-04-07T13:45:23.453Z,4.90
2023-04-07T13:50:47.078Z,4.87
2023-04-07T13:55:57.379Z,4.91
2023-04-07T14:01:07.436Z,4.99
2023-04-07T14:06:11.209Z,4.92
2023-04-07T14:11:18.123Z,4.94
2023-04-07T14:16:23.785Z,4.95
2023-04-07T14:21:31.495Z,4.99
2023-04-07T14:26:33.568Z,4.98
2023-04-07T14:31:36.121Z,5.04
2023-04-07T14:36:38.881Z,5.04
2023-04-07T14:41:41.521Z,5.04
2023-04-07T14:46:44.457Z,5.09
2023-04-07T14:51:51.435Z,5.08
2023-04-07T14:56:53.812Z,5.07
2023-04-07T15:01:56.168Z,5.06
2023-04-07T15:06:58.576Z,5.01
2023-04-07T15:12:02.643Z,5.04
2023-04-07T15:17:05.087Z,5.05
2023-04-07T15:22:07.869Z,5.09
2023-04-07T15:27:11.060Z,5.14
2023-04-07T15:32:13.852Z,5.15
2023-04-07T15:37:17.394Z,5.11
2023-04-07T15:42:19.929Z,5.13
2023-04-07T15:47:22.829Z,5.14
2023-04-07T15:52:25.849Z,5.15
2023-04-07T15:57:28.186Z,5.13
2023-04-07T16:02:30.870Z,5.12
2023-04-07T16:07:33.990Z,5.10
2023-04-07T16:12:45.806Z,5.15
2023-04-07T16:17:49.077Z,5.16
2023-04-07T16:22:52.416Z,5.16
2023-04-07T16:27:55.625Z,5.18
2023-04-07T16:33:01.834Z,5.20
2023-04-07T16:38:12.356Z,5.19
2023-04-07T16:43:18.168Z,5.18
2023-04-07T16:48:31.152Z,5.16
2023-04-07T16:53:34.244Z,5.17
2023-04-07T16:58:48.932Z,5.18
2023-04-07T17:03:58.570Z,5.21
2023-04-07T17:09:04.374Z,5.17
2023-04-07T17:14:06.874Z,5.16
2023-04-07T17:19:09.884Z,5.19
2023-04-07T17:24:15.387Z,5.20
2023-04-07T17:29:29.125Z,5.23
2023-04-07T17:34:33.605Z,5.21
2023-04-07T17:39:36.156Z,5.27
2023-04-07T17:44:38.760Z,5.30
2023-04-07T17:49:50.590Z,5.37
2023-04-07T17:55:03.488Z,5.39
2023-04-07T18:00:09.235Z,5.42
2023-04-07T18:05:21.043Z,5.36
2023-04-07T18:10:23.974Z,5.30
2023-04-07T18:15:26.939Z,5.33
2023-04-07T18:20:29.675Z,5.34
2023-04-07T18:25:32.007Z,5.38
2023-04-07T18:30:35.129Z,5.45
2023-04-07T18:35:38.039Z,5.42
2023-04-07T18:40:40.392Z,5.41
2023-04-07T18:45:47.059Z,5.40
2023-04-07T18:50:52.216Z,5.37
2023-04-07T18:55:55.899Z,5.36
2023-04-07T19:01:03.805Z,5.34
2023-04-07T19:06:06.652Z,5.38
2023-04-07T19:11:10.234Z,5.41
2023-04-07T19:16:13.645Z,5.45
2023-04-07T19:21:18.983Z,5.46
2023-04-07T19:26:22.890Z,5.45
2023-04-07T19:31:28.194Z,5.41
2023-04-07T19:36:31.331Z,5.41
2023-04-07T19:41:34.704Z,5.44
2023-04-07T19:46:37.815Z,5.46
2023-04-07T19:51:41.703Z,5.44
2023-04-07T19:56:52.775Z,5.42
2023-04-07T20:01:55.621Z,5.41
2023-04-07T20:06:58.060Z,5.39
2023-04-07T20:12:01.791Z,5.40
2023-04-07T20:17:04.888Z,5.40
2023-04-07T20:22:08.264Z,5.37
2023-04-07T20:27:11.107Z,5.33
2023-04-07T20:32:13.641Z,5.29
2023-04-07T20:37:16.657Z,5.30
2023-04-07T20:42:19.266Z,5.33
2023-04-07T20:47:25.126Z,5.39
2023-04-07T20:52:39.416Z,5.40
2023-04-07T20:57:43.639Z,5.39
2023-04-07T21:02:48.294Z,5.40
2023-04-07T21:07:51.933Z,5.45
2023-04-07T21:13:15.968Z,5.50
2023-04-07T21:18:19.396Z,5.51
2023-04-07T21:23:22.415Z,5.53
2023-04-07T21:28:24.944Z,5.54
2023-04-07T21:33:27.821Z,5.57
2023-04-07T21:38:31.181Z,5.61
2023-04-07T21:43:34.866Z,5.66
2023-04-07T21:48:49.379Z,5.70
2023-04-07T21:53:54.296Z,5.75
2023-04-07T21:58:57.222Z,5.78
2023-04-07T22:04:00.016Z,5.81
2023-04-07T22:09:03.600Z,5.81
2023-04-07T22:14:07.000Z,5.82
2023-04-07T22:19:10.213Z,5.88
2023-04-07T22:24:12.853Z,5.95
2023-04-07T22:29:18.658Z,6.00
2023-04-07T22:34:21.723Z,6.06
2023-04-07T22:39:24.885Z,6.07
2023-04-07T22:44:27.645Z,6.09
2023-04-07T22:49:31.345Z,6.09
2023-04-07T22:54:33.970Z,6.10
2023-04-07T22:59:36.760Z,6.09
2023-04-07T23:04:42.647Z,6.08
2023-04-07T23:09:47.229Z,6.04
2023-04-07T23:14:54.592Z,5.98
2023-04-07T23:19:58.100Z,5.93
2023-04-07T23:25:03.098Z,5.81
2023-04-07T23:30:06.431Z,5.71
2023-04-07T23:35:14.508Z,5.67
2023-04-07T23:40:21.628Z,5.54
2023-04-07T23:45:30.820Z,5.47
2023-04-07T23:50:48.800Z,5.46
2023-04-07T23:55:52.104Z,5.43
